createdAt,value
2022-12-18T00:01:53.888Z,-1284.97
2022-12-18T00:04:24.206Z,-1284.97
2022-12-18T00:08:04.281Z,-1284.97
2022-12-18T00:11:36.554Z,-1284.97
2022-12-18T00:14:04.712Z,-787.97
2022-12-18T00:16:34.233Z,-1036.47
2022-12-18T00:19:05.650Z,-787.97
2022-12-18T00:21:37.247Z,-787.97
2022-12-18T00:24:18.443Z,-787.97
2022-12-18T00:26:53.875Z,-1284.97
2022-12-18T00:29:23.514Z,-1284.97
2022-12-18T00:31:54.863Z,-1036.47
2022-12-18T00:34:32.228Z,-787.97
2022-12-18T00:37:00.351Z,-539.44
2022-12-18T00:39:28.538Z,-539.44
2022-12-18T00:42:15.600Z,-290.88
2022-12-18T00:44:48.585Z,-290.88
2022-12-18T00:47:16.758Z,-42.34
2022-12-18T00:49:44.597Z,206.25
2022-12-18T00:52:12.527Z,454.84
2022-12-18T00:54:40.410Z,454.84
2022-12-18T00:57:08.732Z,703.44
2022-12-18T00:59:36.902Z,952.06
2022-12-18T01:02:05.259Z,952.06
2022-12-18T01:04:34.278Z,1449.34
2022-12-18T01:07:02.245Z,952.06
2022-12-18T01:09:32.349Z,1698.03
2022-12-18T01:12:00.365Z,2444.13
2022-12-18T01:14:28.536Z,2941.63
2022-12-18T01:16:56.673Z,3439.16
2022-12-18T01:19:27.245Z,3687.97
2022-12-18T01:21:56.559Z,4434.44
2022-12-18T01:24:24.966Z,4932.19
2022-12-18T01:26:54.297Z,5678.91
2022-12-18T01:29:22.608Z,6425.78
2022-12-18T01:31:58.760Z,7421.84
2022-12-18T01:34:27.157Z,7919.97
2022-12-18T01:36:55.319Z,8169.06
2022-12-18T01:39:23.434Z,8418.16
2022-12-18T01:42:03.465Z,9165.56
2022-12-18T01:45:02.575Z,10162.34
2022-12-18T01:47:43.165Z,10411.56
2022-12-18T01:50:15.814Z,11159.34
2022-12-18T01:52:46.724Z,11657.97
2022-12-18T01:55:19.337Z,11159.34
2022-12-18T01:57:52.923Z,11408.66
2022-12-18T02:00:22.765Z,11408.66
2022-12-18T02:02:54.033Z,10910.06
2022-12-18T02:05:47.893Z,11408.66
2022-12-18T02:08:34.756Z,10660.81
2022-12-18T02:11:15.149Z,10411.56
2022-12-18T02:14:02.933Z,10162.34
2022-12-18T02:16:38.165Z,9913.13
2022-12-18T02:19:32.911Z,9414.75
2022-12-18T02:22:38.672Z,9663.91
2022-12-18T02:25:55.166Z,10660.81
2022-12-18T02:28:26.546Z,10162.34
2022-12-18T02:31:02.646Z,10411.56
2022-12-18T02:33:35.265Z,10162.34
2022-12-18T02:36:04.663Z,9663.91
2022-12-18T02:38:41.389Z,10162.34
2022-12-18T02:41:14.792Z,9913.13
2022-12-18T02:43:52.020Z,10162.34
2022-12-18T02:46:39.339Z,10411.56
2022-12-18T02:49:36.278Z,10162.34
2022-12-18T02:52:17.478Z,11159.34
2022-12-18T02:55:20.340Z,11408.66
2022-12-18T02:58:23.184Z,11657.97
2022-12-18T03:01:03.274Z,11907.28
2022-12-18T03:03:48.382Z,11657.97
2022-12-18T03:06:29.572Z,11657.97
2022-12-18T03:09:50.649Z,11907.28
2022-12-18T03:12:29.802Z,11907.28
2022-12-18T03:15:41.309Z,12156.63
2022-12-18T03:18:21.855Z,11657.97
2022-12-18T03:21:07.364Z,11657.97
2022-12-18T03:23:47.622Z,11657.97
2022-12-18T03:26:27.561Z,11408.66
2022-12-18T03:29:01.421Z,11159.34
2022-12-18T03:31:41.886Z,11408.66
2022-12-18T03:34:17.593Z,11408.66
2022-12-18T03:36:50.758Z,10910.06
2022-12-18T03:39:22.916Z,11408.66
2022-12-18T03:42:45.072Z,11657.97
2022-12-18T03:45:21.478Z,11657.97
2022-12-18T03:48:30.562Z,12156.63
2022-12-18T03:51:07.760Z,12655.38
2022-12-18T03:54:00.926Z,13154.16
2022-12-18T03:56:42.592Z,13403.59
2022-12-18T03:59:23.406Z,13403.59
2022-12-18T04:01:54.662Z,14401.44
2022-12-18T04:04:25.858Z,14650.94
2022-12-18T04:07:00.255Z,15399.56
2022-12-18T04:09:34.627Z,15649.13
2022-12-18T04:12:02.554Z,15649.13
2022-12-18T04:14:32.629Z,15649.13
2022-12-18T04:17:00.736Z,16148.31
2022-12-18T04:19:32.547Z,15399.56
2022-12-18T04:22:01.905Z,15399.56
2022-12-18T04:24:33.704Z,15898.72
2022-12-18T04:27:16.213Z,17146.88
2022-12-18T04:29:51.888Z,18145.69
2022-12-18T04:32:30.282Z,18145.69
2022-12-18T04:35:00.860Z,18145.69
2022-12-18T04:37:31.792Z,18645.19
2022-12-18T04:40:04.909Z,18645.19
2022-12-18T04:42:44.623Z,18395.44
2022-12-18T04:45:15.547Z,18145.69
2022-12-18T04:47:47.339Z,18145.69
2022-12-18T04:50:16.414Z,17895.94
2022-12-18T04:52:48.208Z,17646.25
2022-12-18T04:55:19.641Z,17646.25
2022-12-18T04:57:48.935Z,18395.44
2022-12-18T05:00:17.457Z,18645.19
2022-12-18T05:02:46.194Z,18645.19
2022-12-18T05:05:14.946Z,18645.19
2022-12-18T05:07:45.550Z,18894.97
2022-12-18T05:10:14.185Z,18395.44
2022-12-18T05:13:01.385Z,18645.19
2022-12-18T05:15:31.122Z,19894.22
2022-12-18T05:18:02.936Z,20893.75
2022-12-18T05:20:31.208Z,21143.66
2022-12-18T05:23:02.918Z,21643.56
2022-12-18T05:25:33.737Z,22393.50
2022-12-18T05:29:21.466Z,23143.59
2022-12-18T05:31:29.114Z,24394.09
2022-12-18T05:33:57.558Z,23893.84
2022-12-18T05:36:25.760Z,24644.25
2022-12-18T05:38:56.162Z,25394.78
2022-12-18T05:41:24.279Z,25644.97
2022-12-18T05:44:00.884Z,26896.25
2022-12-18T05:46:31.979Z,26896.25
2022-12-18T05:49:03.383Z,25394.78
2022-12-18T05:51:31.377Z,24143.97
2022-12-18T05:53:59.392Z,23643.75
2022-12-18T05:56:27.717Z,23893.84
2022-12-18T05:58:57.022Z,22893.56
2022-12-18T06:01:29.680Z,21893.53
2022-12-18T06:04:01.223Z,21143.66
2022-12-18T06:06:32.748Z,21393.59
2022-12-18T06:09:12.264Z,21893.53
2022-12-18T06:11:59.668Z,22143.50
2022-12-18T06:14:38.137Z,22643.53
2022-12-18T06:17:06.228Z,22143.50
2022-12-18T06:20:03.844Z,21393.59
2022-12-18T06:22:36.335Z,21893.53
2022-12-18T06:25:12.076Z,21893.53
2022-12-18T06:27:42.535Z,20893.75
2022-12-18T06:30:15.846Z,20144.09
2022-12-18T06:32:54.681Z,19644.38
2022-12-18T06:35:24.898Z,20144.09
2022-12-18T06:37:55.900Z,20393.97
2022-12-18T06:43:07.063Z,20643.84
2022-12-18T06:45:38.846Z,21143.66
2022-12-18T06:48:06.915Z,22143.50
2022-12-18T06:50:35.070Z,22893.56
2022-12-18T06:53:05.619Z,23143.59
2022-12-18T06:55:38.776Z,23643.75
2022-12-18T06:58:14.987Z,24894.41
2022-12-18T07:00:43.353Z,27146.56
2022-12-18T07:03:12.768Z,28398.34
2022-12-18T07:05:46.424Z,29650.50
2022-12-18T07:08:24.231Z,31905.41
2022-12-18T07:10:56.044Z,33910.88
2022-12-18T07:13:32.345Z,36168.25
2022-12-18T07:16:19.658Z,36419.13
2022-12-18T07:21:47.321Z,43199.47
2022-12-18T07:24:18.697Z,44707.78
2022-12-18T07:26:50.270Z,47726.19
2022-12-18T07:29:22.993Z,50746.88
2022-12-18T07:31:51.165Z,53265.88
2022-12-18T07:34:19.343Z,55534.34
2022-12-18T07:36:51.162Z,59570.41
2022-12-18T07:39:49.236Z,63105.34
2022-12-18T07:42:37.155Z,66390.56
2022-12-18T07:45:09.938Z,71703.22
2022-12-18T07:48:02.966Z,73475.69
2022-12-18T07:50:31.175Z,77022.94
2022-12-18T07:53:07.303Z,80319.66
2022-12-18T07:56:05.326Z,81080.81
2022-12-18T07:58:32.832Z,85142.78
2022-12-18T08:01:22.233Z,88954.59
2022-12-18T08:03:59.042Z,92515.56
2022-12-18T08:06:30.261Z,94297.22
2022-12-18T08:09:01.904Z,98372.53
2022-12-18T08:11:36.977Z,98627.38
2022-12-18T08:14:05.361Z,99137.13
2022-12-18T08:17:00.218Z,97608.09
2022-12-18T08:19:34.281Z,99901.84
2022-12-18T08:22:10.166Z,100156.78
2022-12-18T08:24:48.211Z,101176.69
2022-12-18T08:27:31.982Z,103472.44
2022-12-18T08:30:12.232Z,103727.63
2022-12-18T08:32:41.918Z,101431.72
2022-12-18T08:35:18.608Z,99901.84
2022-12-18T08:37:54.609Z,97862.91
2022-12-18T08:40:29.802Z,97862.91
2022-12-18T08:43:19.927Z,97608.09
2022-12-18T08:46:10.607Z,97353.31
2022-12-18T08:48:48.974Z,97862.91
2022-12-18T08:51:33.048Z,96843.81
2022-12-18T08:54:02.496Z,97353.31
2022-12-18T08:56:36.464Z,94551.81
2022-12-18T08:59:13.144Z,93279.03
2022-12-18T09:01:54.893Z,95061.03
2022-12-18T09:04:32.930Z,94806.41
2022-12-18T09:07:19.355Z,93533.56
2022-12-18T09:10:12.879Z,90480.34
2022-12-18T09:12:58.041Z,91752.25
2022-12-18T09:19:30.530Z,98117.72
2022-12-18T09:22:02.184Z,95061.03
2022-12-18T09:24:30.674Z,92770.03
2022-12-18T09:27:15.227Z,89971.69
2022-12-18T09:30:08.816Z,86667.06
2022-12-18T09:32:49.163Z,84888.78
2022-12-18T09:35:19.517Z,84126.91
2022-12-18T09:37:49.193Z,84126.91
2022-12-18T09:40:23.295Z,83872.97
2022-12-18T09:43:10.878Z,80065.97
2022-12-18T09:45:55.241Z,80319.66
2022-12-18T09:48:44.486Z,80319.66
2022-12-18T09:51:18.947Z,80065.97
2022-12-18T09:54:13.047Z,79051.34
2022-12-18T09:57:21.626Z,77276.44
2022-12-18T10:00:16.826Z,75755.69
2022-12-18T10:02:57.035Z,76516.00
2022-12-18T10:09:00.465Z,77529.94
2022-12-18T10:12:01.255Z,76516.00
2022-12-18T10:14:46.618Z,72715.97
2022-12-18T10:18:00.435Z,70184.59
2022-12-18T10:20:46.326Z,65126.69
2022-12-18T10:23:33.373Z,60832.53
2022-12-18T10:26:17.507Z,56290.81
2022-12-18T10:29:08.719Z,54273.94
2022-12-18T10:32:13.232Z,52761.94
2022-12-18T10:35:00.037Z,52761.94
2022-12-18T10:37:32.217Z,52258.09
2022-12-18T10:40:23.262Z,50746.88
2022-12-18T10:43:16.024Z,49739.72
2022-12-18T10:46:18.695Z,48481.13
2022-12-18T10:49:11.911Z,46971.38
2022-12-18T10:51:56.635Z,45210.69
2022-12-18T10:54:28.627Z,44456.38
2022-12-18T10:57:28.718Z,42696.81
2022-12-18T11:00:28.166Z,41440.47
2022-12-18T11:02:58.283Z,39180.09
2022-12-18T11:05:34.050Z,37422.91
2022-12-18T11:08:27.206Z,38175.88
2022-12-18T11:11:06.027Z,37924.88
2022-12-18T11:13:42.556Z,37422.91
2022-12-18T11:16:24.350Z,36921.00
2022-12-18T11:18:53.041Z,36419.13
2022-12-18T11:21:25.088Z,36168.25
2022-12-18T11:23:56.374Z,34412.41
2022-12-18T11:26:42.294Z,32657.34
2022-12-18T11:29:33.289Z,31153.63
2022-12-18T11:32:27.792Z,30151.47
2022-12-18T11:35:23.695Z,29650.50
2022-12-18T11:38:06.274Z,28147.94
2022-12-18T11:40:41.497Z,26395.69
2022-12-18T11:44:01.951Z,25144.56
2022-12-18T11:49:24.310Z,23893.84
2022-12-18T11:52:19.181Z,22643.53
2022-12-18T11:54:53.355Z,21893.53
2022-12-18T11:57:43.723Z,21893.53
2022-12-18T12:00:19.191Z,21643.56
2022-12-18T12:03:11.675Z,21893.53
2022-12-18T12:06:18.923Z,21643.56
2022-12-18T12:09:25.257Z,23143.59
2022-12-18T12:12:58.302Z,23893.84
2022-12-18T12:15:42.315Z,25144.56
2022-12-18T12:18:33.563Z,27146.56
2022-12-18T12:21:05.224Z,29149.59
2022-12-18T12:23:56.617Z,28899.16
2022-12-18T12:26:47.046Z,28147.94
2022-12-18T12:29:31.185Z,28147.94
2022-12-18T12:32:21.453Z,28147.94
2022-12-18T12:35:27.833Z,27146.56
2022-12-18T12:38:04.405Z,26395.69
2022-12-18T12:40:52.608Z,25144.56
2022-12-18T12:43:49.480Z,23143.59
2022-12-18T12:46:22.748Z,22643.53
2022-12-18T12:48:58.335Z,21643.56
2022-12-18T12:51:32.704Z,21143.66
2022-12-18T12:54:08.652Z,20144.09
2022-12-18T12:57:07.918Z,20144.09
2022-12-18T13:00:05.672Z,19894.22
2022-12-18T13:03:16.548Z,19394.56
2022-12-18T13:06:06.526Z,19394.56
2022-12-18T13:12:09.705Z,18645.19
2022-12-18T13:14:48.770Z,17396.53
2022-12-18T13:17:40.732Z,16647.56
2022-12-18T13:20:15.539Z,15898.72
2022-12-18T13:22:53.041Z,15150.00
2022-12-18T13:25:36.485Z,14900.47
2022-12-18T13:28:16.779Z,14401.44
2022-12-18T13:30:55.471Z,14151.97
2022-12-18T13:33:26.951Z,13653.03
2022-12-18T13:36:28.117Z,12655.38
2022-12-18T13:39:34.270Z,12156.63
2022-12-18T13:42:18.282Z,12406.00
2022-12-18T13:44:48.395Z,12406.00
2022-12-18T13:47:49.702Z,12156.63
2022-12-18T13:50:36.371Z,12156.63
2022-12-18T13:53:08.314Z,61912.31
2022-12-18T13:55:36.854Z,61912.31
2022-12-18T13:58:06.579Z,61912.31
2022-12-18T14:00:35.553Z,61912.31
2022-12-18T14:03:28.547Z,61912.31
2022-12-18T14:06:09.750Z,61912.31
2022-12-18T14:08:45.291Z,61912.31
2022-12-18T14:11:26.381Z,61912.31
2022-12-18T14:14:02.402Z,61912.31
2022-12-18T14:16:35.418Z,61912.31
2022-12-18T14:19:15.526Z,61912.31
2022-12-18T14:21:49.728Z,61912.31
2022-12-18T14:24:21.986Z,61912.31
2022-12-18T14:27:36.806Z,61912.31
2022-12-18T14:30:28.611Z,61912.31
2022-12-18T14:36:04.278Z,61912.31
2022-12-18T14:38:42.883Z,61912.31
2022-12-18T14:41:15.775Z,61912.31
2022-12-18T14:43:49.074Z,61912.31
2022-12-18T14:46:34.842Z,61912.31
2022-12-18T14:49:44.497Z,61912.31
2022-12-18T14:52:29.212Z,61912.31
2022-12-18T14:54:57.885Z,61912.31
2022-12-18T15:00:26.387Z,61912.31
2022-12-18T15:03:01.971Z,61912.31
2022-12-18T15:05:36.409Z,61912.31
2022-12-18T15:08:36.663Z,61912.31
2022-12-18T15:11:29.307Z,61912.31
2022-12-18T15:14:25.992Z,61912.31
2022-12-18T15:17:02.487Z,61912.31
2022-12-18T15:19:54.625Z,61912.31
2022-12-18T15:22:35.770Z,61912.31
2022-12-18T15:25:32.255Z,61912.31
2022-12-18T15:28:04.613Z,61912.31
2022-12-18T15:30:35.436Z,61912.31
2022-12-18T15:33:32.788Z,61912.31
2022-12-18T15:39:07.519Z,61912.31
2022-12-18T15:41:37.610Z,61912.31
2022-12-18T15:44:30.139Z,61912.31
2022-12-18T15:46:59.604Z,61912.31
2022-12-18T15:49:28.579Z,61912.31
2022-12-18T15:52:07.127Z,61912.31
2022-12-18T15:54:57.841Z,61912.31
2022-12-18T15:57:40.749Z,61912.31
2022-12-18T16:00:16.732Z,61912.31
2022-12-18T16:05:40.821Z,61912.31
2022-12-18T16:08:14.127Z,61912.31
2022-12-18T16:10:46.055Z,61912.31
2022-12-18T16:13:21.032Z,61912.31
2022-12-18T16:16:22.213Z,61912.31
2022-12-18T16:18:56.880Z,61912.31
2022-12-18T16:21:28.245Z,61912.31
2022-12-18T16:24:05.788Z,61912.31
2022-12-18T16:32:27.793Z,61912.31
2022-12-18T16:35:08.806Z,61912.31
2022-12-18T16:37:40.533Z,61912.31
2022-12-18T16:40:14.537Z,61912.31
2022-12-18T16:42:47.214Z,61912.31
2022-12-18T16:45:21.181Z,61912.31
2022-12-18T16:47:49.471Z,61912.31
2022-12-18T16:50:17.890Z,61912.31
2022-12-18T16:52:53.441Z,61912.31
2022-12-18T16:55:22.184Z,61912.31
2022-12-18T16:57:51.542Z,61912.31
2022-12-18T17:00:22.831Z,61912.31
2022-12-18T17:02:52.594Z,61912.31
2022-12-18T17:05:25.535Z,61912.31
2022-12-18T17:07:59.136Z,61912.31
2022-12-18T17:10:38.506Z,61912.31
2022-12-18T17:13:08.701Z,61912.31
2022-12-18T17:15:45.005Z,61912.31
2022-12-18T17:18:13.004Z,61912.31
2022-12-18T17:20:47.030Z,61912.31
2022-12-18T17:23:22.284Z,61912.31
2022-12-18T17:25:59.083Z,61912.31
2022-12-18T17:28:28.971Z,61912.31
2022-12-18T17:31:05.977Z,61912.31
2022-12-18T17:33:45.318Z,61912.31
2022-12-18T17:36:37.155Z,61912.31
2022-12-18T17:39:06.664Z,61912.31
2022-12-18T17:41:44.699Z,61912.31
2022-12-18T17:44:13.667Z,61912.31
2022-12-18T17:46:42.370Z,61912.31
2022-12-18T17:49:13.247Z,61912.31
2022-12-18T17:51:47.469Z,61912.31
2022-12-18T17:54:15.909Z,61912.31
2022-12-18T17:56:53.564Z,61912.31
2022-12-18T17:59:26.902Z,61912.31
2022-12-18T18:01:59.138Z,61912.31
2022-12-18T18:05:08.112Z,61912.31
2022-12-18T18:07:35.248Z,61912.31
2022-12-18T18:10:29.734Z,61912.31
2022-12-18T18:13:20.941Z,61912.31
2022-12-18T18:15:58.882Z,61912.31
2022-12-18T18:18:30.122Z,61912.31
2022-12-18T18:21:16.127Z,61912.31
2022-12-18T18:28:17.612Z,61912.31
